Date,TemperatureHighF,TemperatureAvgF,TemperatureLowF,DewpointHighF,DewpointAvgF,DewpointLowF,HumidityHigh,HumidityAvg,HumidityLow,PressureMaxIn,PressureMinIn,WindSpeedMaxMPH,WindSpeedAvgMPH,GustSpeedMaxMPH,PrecipitationSumIn
2012-1-1,52.0,43.3,33.0,46.0,29.8,16.0,84,60,37,30.26,29.69,16,9,29,0.00
2012-1-2,33.0,26.4,22.0,20.0,15.4,10.0,81,63,56,30.43,30.22,15,8,27,0.00
2012-1-3,32.0,24.6,16.0,17.0,13.6,10.0,81,63,44,30.52,30.19,9,4,18,0.00
2012-1-4,47.0,35.4,26.0,30.0,24.2,16.0,81,64,49,30.19,30.00,9,4,16,0.00
2012-1-5,56.0,39.1,26.0,38.0,30.7,23.0,93,74,45,30.13,29.89,10,4,17,0.00
2012-1-6,61.0,46.7,35.0,44.0,36.3,30.0,85,69,44,29.89,29.75,11,5,16,0.00
2012-1-7,51.0,41.8,35.0,41.0,31.0,28.0,84,67,42,30.19,29.81,7,2,12,0.00
2012-1-8,46.0,37.4,27.0,34.0,29.6,24.0,91,74,61,30.30,30.19,8,3,13,0.00
2012-1-9,51.0,40.3,29.0,32.0,28.5,25.0,89,65,38,30.22,30.10,5,2,9,0.00
2012-1-19,38.0,28.8,17.0,29.0,22.3,10.0,83,76,65,30.14,29.96,12,7,19,0.00
2012-1-20,31.0,24.3,16.0,28.0,19.7,10.0,94,82,75,30.16,29.85,9,6,16,0.03
2012-1-21,28.0,25.3,23.0,26.0,22.8,20.0,94,90,87,30.18,29.92,7,3,14,0.03
2012-1-22,59.0,38.0,26.0,57.0,36.9,25.0,98,96,93,30.10,29.51,16,8,25,0.90
2012-1-23,53.0,43.4,35.0,50.0,37.8,28.0,95,81,71,30.03,29.47,13,5,24,0.91
2012-1-24,39.0,33.3,30.0,32.0,27.8,25.0,86,80,70,30.28,30.02,6,2,10,0.00
2012-4-12,55.0,47.0,41.0,37.0,36.0,34.0,80,66,48,30.20,30.18,0,0,1,0.08
2012-4-13,62.0,50.9,39.0,48.0,39.5,33.0,89,68,36,30.23,30.09,13,4,21,0.22
2012-4-14,76.0,60.0,50.0,67.0,50.9,-99.9,95,80,67,30.10,29.88,11,-10,21,0.85
2012-4-15,76.0,69.0,62.0,64.0,57.4,-99.9,84,69,62,29.96,29.72,21,-2,32,0.12
2012-4-16,73.0,58.6,50.0,62.0,51.2,46.0,95,77,59,30.26,29.70,22,6,35,1.00
2012-4-17,65.0,55.3,45.0,52.0,47.6,44.0,96,77,50,30.39,30.26,7,1,10,0.05
2012-4-18,71.0,56.8,42.0,54.0,46.7,41.0,96,72,41,30.29,30.07,6,1,9,0.00
2012-4-19,75.0,61.8,47.0,52.0,47.8,44.0,91,63,36,30.07,29.83,13,3,20,0.00
2012-4-20,68.0,54.8,45.0,55.0,48.3,42.0,92,79,59,29.96,29.76,12,6,20,0.19
2012-4-21,56.0,48.2,43.0,44.0,41.0,38.0,88,76,58,30.02,29.96,13,6,20,0.02
2012-4-22,59.0,48.8,42.0,44.0,38.0,26.0,95,69,33,30.06,29.92,17,6,27,0.00
2012-4-23,60.0,48.7,37.0,39.0,30.4,-99.9,72,52,35,30.06,29.89,13,-10,23,0.00
2012-4-24,64.0,54.2,44.0,50.0,43.0,37.0,82,67,50,29.89,29.70,6,3,12,0.01
2012-4-25,78.0,65.3,48.0,64.0,56.0,45.0,92,73,57,29.72,29.58,14,4,21,0.01
2012-4-26,76.0,66.7,52.0,62.0,55.3,34.0,95,68,47,30.09,29.59,15,7,23,0.18
2012-4-27,63.0,52.6,40.0,39.0,31.9,26.0,63,46,28,30.21,29.98,14,7,22,0.01
2012-4-28,80.0,63.9,54.0,68.0,51.9,-99.9,91,68,48,30.07,29.88,14,6,27,0.37
2012-4-29,72.0,61.3,51.0,66.0,58.0,50.0,96,89,78,30.14,29.99,9,5,12,0.37
2012-4-30,81.0,69.1,60.0,67.0,63.3,58.0,95,83,60,30.03,29.90,11,3,22,0.19
2012-5-1,84.0,69.9,56.0,72.0,63.5,55.0,97,82,56,30.02,29.84,12,4,20,0.25
2012-5-2,89.0,78.1,67.0,70.0,65.2,62.0,87,66,46,29.99,29.88,10,6,18,0.01
2012-5-3,87.0,75.5,66.0,69.0,64.6,60.0,85,70,42,30.05,29.93,15,7,26,0.00
2012-5-4,82.0,71.9,66.0,73.0,67.8,63.0,95,87,73,30.01,29.83,8,3,20,0.25
2012-5-5,85.0,72.2,62.0,74.0,64.7,-99.9,95,82,66,29.96,29.81,14,-6,28,0.14
2012-5-6,88.0,77.9,68.0,74.0,69.9,66.0,94,78,54,29.96,29.84,9,4,16,0.02
2012-5-7,82.0,72.5,66.0,69.0,65.7,63.0,90,80,56,29.88,29.80,7,3,14,0.02
2012-5-8,72.0,64.9,58.0,62.0,56.2,50.0,95,75,49,29.96,29.87,9,3,16,0.01
2012-5-9,69.0,61.4,51.0,52.0,49.1,46.0,92,66,45,29.97,29.90,11,3,19,0.01
2012-5-10,71.0,59.8,48.0,51.0,44.2,35.0,92,61,31,30.06,29.95,7,2,12,0.01
2012-5-11,75.0,62.4,47.0,56.0,48.1,42.0,93,64,32,30.18,30.06,8,2,14,0.01
2012-5-12,74.0,65.2,57.0,57.0,49.8,-99.9,90,62,40,30.23,30.15,7,2,11,0.01
2012-5-13,79.0,64.5,54.0,59.0,51.2,-99.9,96,69,38,30.17,30.01,11,-18,19,0.00
2012-5-14,79.0,68.0,57.0,60.0,56.9,53.0,96,71,41,30.09,29.99,10,3,18,0.00
2012-5-15,83.0,69.1,54.0,58.0,52.2,45.0,96,61,28,30.04,29.95,5,1,11,0.00
2012-5-16,80.0,68.3,55.0,60.0,50.9,36.0,86,57,30,30.05,29.96,10,4,16,0.00
2012-5-17,78.0,65.6,51.0,47.0,41.9,37.0,66,44,25,30.10,30.01,9,5,15,0.00
2012-5-18,86.0,71.2,56.0,62.0,53.4,46.0,70,55,35,30.07,29.96,9,3,13,0.00
2012-5-19,90.0,77.2,65.0,66.0,59.8,-99.9,82,59,36,30.07,29.99,10,3,15,0.00
2012-5-20,91.0,76.3,63.0,66.0,61.2,57.0,90,63,34,30.11,29.97,9,2,16,0.00
2012-5-21,74.0,67.1,61.0,62.0,57.6,46.0,94,73,51,30.08,30.02,11,5,19,0.02
2012-5-22,76.0,61.9,49.0,50.0,41.8,-99.9,82,55,29,30.08,29.90,11,-18,19,0.00
2012-5-23,83.0,67.9,49.0,56.0,50.0,46.0,91,58,30,29.92,29.78,9,3,16,0.00
2012-5-24,90.0,75.4,59.0,64.0,57.5,52.0,79,56,37,29.85,29.68,17,8,27,0.00
2012-5-25,89.0,80.6,73.0,71.0,67.0,63.0,78,64,52,30.03,29.82,10,4,15,0.00
2012-5-26,94.0,80.5,68.0,71.0,66.4,62.0,84,64,44,30.10,29.98,11,3,19,0.00
2012-5-27,94.0,81.4,70.0,67.0,64.0,59.0,83,59,32,30.04,29.91,9,3,16,0.00
2012-5-28,94.0,82.9,68.0,69.0,65.2,63.0,83,57,38,29.95,29.79,11,4,20,0.00
2012-5-29,86.0,78.1,63.0,68.0,61.6,56.0,85,59,36,29.90,29.78,10,3,14,0.00
2012-5-30,80.0,68.1,58.0,59.0,54.8,50.0,94,66,37,29.98,29.86,6,2,11,0.00
2012-5-31,79.0,64.8,56.0,65.0,55.2,47.0,90,73,43,29.90,29.69,9,4,16,0.03
2012-6-1,63.0,55.2,50.0,53.0,48.7,46.0,93,80,56,29.92,29.75,11,4,19,0.01
2012-6-2,75.0,61.0,47.0,57.0,48.5,-99.9,92,69,40,29.97,29.83,13,3,23,0.02
2012-6-3,85.0,70.9,52.0,60.0,55.6,50.0,95,63,35,29.92,29.82,7,2,14,0.01
2012-6-4,82.0,70.5,60.0,62.0,59.2,57.0,91,70,44,29.87,29.79,12,3,18,0.01
2012-6-5,79.0,67.4,55.0,59.0,54.0,50.0,95,65,38,29.96,29.85,12,5,19,0.01
2012-6-6,77.0,65.6,54.0,52.0,49.6,46.0,84,59,36,30.07,29.96,10,4,18,0.00
2012-6-7,83.0,68.6,51.0,55.0,50.6,46.0,91,58,30,30.12,30.05,7,2,13,0.00
2012-6-8,87.0,72.0,53.0,58.0,52.5,48.0,91,56,27,30.12,29.97,7,1,13,0.00
2012-6-9,90.0,75.1,56.0,61.0,52.4,-99.9,88,54,33,30.01,29.88,9,-4,15,0.00
2012-6-10,89.0,76.5,63.0,65.0,61.1,57.0,83,61,37,29.98,29.90,14,5,24,0.00
2012-6-11,86.0,72.6,66.0,71.0,67.2,64.0,95,84,59,29.96,29.78,11,3,24,0.02
2012-6-12,81.0,71.7,59.0,65.0,55.5,46.0,97,62,33,30.09,29.92,10,4,16,0.02
2012-6-13,83.0,69.1,53.0,55.0,50.2,42.0,81,54,24,30.15,30.03,8,2,12,0.01
2012-6-14,88.0,73.4,57.0,59.0,55.0,50.0,86,56,28,30.10,30.00,6,2,11,0.00
2012-6-15,93.0,77.6,57.0,65.0,58.3,52.0,86,54,33,30.09,30.00,5,2,9,0.00
2012-6-16,93.0,80.9,68.0,71.0,65.1,-99.9,87,62,42,30.12,29.94,10,4,16,0.00
2012-6-17,89.0,79.4,70.0,71.0,68.1,64.0,88,69,54,30.00,29.85,8,3,15,0.00
2012-6-18,92.0,81.1,70.0,69.0,65.3,60.0,84,61,43,29.95,29.85,13,6,22,0.00
2012-6-19,93.0,81.2,70.0,69.0,64.7,60.0,81,59,40,30.05,29.94,13,5,20,0.00
2012-6-20,93.0,81.4,69.0,67.0,62.6,60.0,78,55,37,30.11,29.97,10,4,18,0.00
2012-6-21,93.0,79.0,65.0,69.0,64.4,59.0,84,63,34,30.02,29.91,8,3,16,0.00
2012-6-22,89.0,75.8,60.0,67.0,58.4,53.0,95,60,30,30.01,29.93,8,2,14,0.00
2012-6-23,90.0,74.7,56.0,61.0,55.8,51.0,89,56,27,30.03,29.95,5,1,12,0.00
2012-6-24,93.0,80.4,67.0,64.0,60.2,56.0,82,54,30,30.00,29.90,5,1,10,0.00
2012-6-25,91.0,79.5,67.0,69.0,58.5,41.0,76,52,23,29.94,29.87,10,4,18,0.00
2012-6-26,86.0,72.1,57.0,52.0,48.7,43.0,75,46,25,30.02,29.91,7,3,14,0.00
2012-6-27,93.0,75.8,56.0,55.0,51.8,48.0,78,47,23,30.04,29.89,9,3,15,0.00
2012-6-28,107.0,86.6,68.0,63.0,56.8,50.0,66,40,16,29.96,29.85,7,3,13,0.00
2012-6-29,105.0,88.8,68.0,68.0,64.3,58.0,85,49,22,29.91,29.78,6,1,13,0.00
2012-6-30,104.0,91.2,77.0,71.0,66.4,61.0,75,47,26,29.86,29.78,7,1,15,0.00
2012-7-1,104.0,85.0,73.0,72.0,67.9,62.0,85,60,29,29.95,29.86,12,1,30,0.00
2012-7-2,100.0,78.5,69.0,74.0,62.2,-99.9,88,63,36,30.02,29.90,11,-26,22,0.33
2012-7-3,97.0,80.6,69.0,74.0,69.3,65.0,90,71,43,30.01,29.86,10,2,19,0.21
2012-7-4,102.0,85.5,72.0,76.0,72.0,67.0,93,68,35,29.96,29.87,6,1,13,0.00
2012-7-5,105.0,88.3,72.0,75.0,68.8,61.0,92,59,25,29.97,29.88,6,2,13,0.00
2012-7-6,104.0,89.2,73.0,75.0,69.8,64.0,88,58,28,29.97,29.88,6,1,12,0.00
2012-7-7,104.0,88.6,76.0,79.0,73.0,65.0,88,63,29,29.97,29.87,8,1,18,0.00
2012-7-8,99.0,75.4,73.0,76.0,57.2,-99.9,95,67,45,30.00,29.86,9,-87,14,0.09
2012-7-9,87.0,78.0,70.0,73.0,70.0,67.0,97,78,53,30.01,29.94,6,2,11,0.15
2012-7-10,91.0,79.1,68.0,70.0,66.1,61.0,94,68,38,30.02,29.95,5,1,13,0.03
2012-7-11,93.0,80.2,66.0,69.0,64.2,60.0,82,60,37,30.05,29.98,6,2,15,0.01
2012-7-12,92.0,79.5,67.0,72.0,67.4,64.0,90,69,43,30.05,29.98,10,2,14,0.01
2012-7-13,90.0,78.5,68.0,72.0,68.7,66.0,94,74,50,30.08,29.98,5,2,13,0.00
2012-7-14,85.0,76.8,72.0,75.0,71.8,70.0,96,85,67,30.11,30.01,8,2,15,0.06
2012-7-15,91.0,80.1,71.0,75.0,71.8,68.0,96,78,47,30.14,30.00,6,2,11,0.01
2012-7-16,94.0,83.1,72.0,76.0,72.5,70.0,95,73,49,30.06,29.89,7,2,13,0.01
2012-7-17,96.0,82.9,73.0,79.0,74.3,70.0,93,77,48,29.94,29.86,9,2,14,0.00
2012-7-18,100.0,84.9,74.0,79.0,74.4,71.0,93,73,44,29.95,29.83,6,2,14,0.00
2012-7-19,101.0,82.9,75.0,79.0,63.7,-99.9,92,62,34,29.93,29.78,8,-47,15,0.02
2012-7-20,87.0,79.3,70.0,73.0,69.4,64.0,91,72,56,30.03,29.86,10,5,16,0.01
2012-7-21,90.0,76.0,62.0,66.0,61.4,56.0,95,65,34,30.11,30.01,8,2,15,0.00
2012-7-22,95.0,79.5,63.0,69.0,64.3,59.0,88,63,36,30.14,30.03,9,1,13,0.00
2012-7-23,101.0,86.0,71.0,75.0,69.5,64.0,90,61,35,30.10,29.96,8,3,16,0.00
2012-7-24,104.0,90.3,78.0,72.0,70.2,66.0,78,55,31,30.00,29.83,6,2,13,0.00
2012-7-25,104.0,88.3,75.0,75.0,66.2,-99.9,86,54,31,29.89,29.73,8,-17,15,0.00
2012-7-26,97.0,85.6,72.0,73.0,70.1,66.0,92,62,37,29.84,29.72,7,3,12,0.01
2012-7-27,99.0,82.3,68.0,75.0,66.2,57.0,97,64,31,29.98,29.81,10,4,22,0.01
2012-7-28,90.0,76.8,60.0,65.0,60.3,56.0,90,60,36,30.08,29.97,10,3,16,0.01
2012-7-29,90.0,77.9,65.0,66.0,62.9,59.0,82,62,40,30.11,29.95,6,2,15,0.00
2012-7-30,92.0,80.3,69.0,72.0,68.3,64.0,88,69,48,29.98,29.84,8,3,14,0.00
2012-7-31,101.0,84.2,68.0,73.0,68.2,64.0,95,64,31,29.95,29.81,7,2,13,0.00
2012-8-1,96.0,83.2,70.0,67.0,59.3,51.0,85,50,22,29.92,29.83,8,3,13,0.00
2012-8-2,99.0,78.7,65.0,76.0,61.4,-99.9,94,61,36,29.88,29.71,10,-18,19,0.03
2012-8-3,88.0,77.8,70.0,79.0,73.3,68.0,96,87,71,29.88,29.79,8,3,13,0.05
2012-8-4,87.0,80.7,76.0,79.0,74.6,71.0,94,82,66,29.95,29.85,9,4,16,0.03
2012-8-5,89.0,79.5,68.0,76.0,68.5,57.0,95,73,34,30.11,29.92,9,2,20,0.02
2012-8-6,91.0,76.6,62.0,69.0,60.9,55.0,94,64,31,30.14,30.00,9,1,13,0.02
2012-8-7,93.0,76.9,60.0,67.0,61.2,56.0,94,64,29,30.02,29.92,5,1,10,0.01
2012-8-8,97.0,79.2,67.0,67.0,61.4,-99.9,87,60,32,29.99,29.87,7,-13,13,0.01
2012-8-9,92.0,78.0,66.0,70.0,66.2,63.0,90,69,42,29.90,29.73,10,2,18,0.01
2012-8-10,79.0,71.2,63.0,66.0,60.3,56.0,89,70,48,29.96,29.77,11,5,18,0.00
2012-8-11,83.0,68.4,51.0,56.0,50.4,-99.9,95,59,31,30.03,29.95,7,2,18,0.00
2012-8-12,87.0,67.7,51.0,65.0,54.1,48.0,91,67,29,30.06,29.97,7,2,12,0.01
2012-8-13,75.0,67.1,62.0,68.0,59.6,-99.9,95,82,68,30.01,29.87,12,-11,21,0.01
2012-8-14,79.0,70.7,66.0,67.0,63.0,58.0,94,78,51,29.98,29.89,7,3,13,0.01
2012-8-15,87.0,70.6,57.0,64.0,60.5,56.0,96,74,38,30.02,29.93,5,1,13,0.01
2012-8-16,90.0,70.2,64.0,74.0,56.2,-99.9,96,73,58,29.97,29.75,11,-40,20,0.00
2012-8-17,79.0,70.0,60.0,67.0,59.5,54.0,97,72,45,30.02,29.93,8,3,12,0.00
2012-8-18,79.0,66.2,53.0,60.0,55.1,51.0,95,71,41,30.03,29.92,5,1,10,0.00
2012-8-19,81.0,67.4,56.0,61.0,53.4,-99.9,92,65,34,29.97,29.91,8,-6,12,0.01
2012-8-20,82.0,67.0,52.0,61.0,54.7,50.0,95,69,35,30.01,29.94,6,1,13,0.01
2012-8-21,82.0,66.3,54.0,64.0,54.4,-99.9,95,72,44,30.08,29.98,6,-6,9,0.00
2012-8-22,88.0,71.9,56.0,64.0,57.5,53.0,93,65,32,30.11,30.02,6,2,12,0.00
2012-8-23,91.0,75.1,61.0,65.0,60.0,56.0,85,63,34,30.11,30.01,6,1,12,0.01
2012-8-24,94.0,76.8,64.0,66.0,60.9,56.0,86,62,30,30.06,29.96,6,1,11,0.01
2012-8-25,92.0,77.3,63.0,67.0,62.9,59.0,90,65,38,30.09,29.98,11,3,19,0.00
2012-8-26,89.0,76.5,65.0,72.0,67.9,62.0,92,76,55,30.10,29.96,11,4,20,0.00
2012-8-27,87.0,77.7,70.0,74.0,69.5,62.0,96,77,50,30.06,29.97,8,2,14,0.01
2012-8-28,89.0,76.0,61.0,64.0,59.7,55.0,94,61,33,30.11,29.99,9,3,15,0.01
2012-8-29,89.0,75.7,62.0,64.0,61.1,58.0,86,63,41,30.07,29.95,7,2,15,0.00
2012-8-30,92.0,77.3,63.0,68.0,61.4,57.0,85,62,31,30.06,29.96,8,2,15,0.00
2012-8-31,90.0,80.5,72.0,74.0,71.5,69.0,91,76,53,30.11,29.95,12,5,20,0.00
2012-9-1,85.0,75.4,72.0,75.0,69.0,-99.9,95,85,69,30.00,29.82,14,-14,24,0.00
2012-9-2,81.0,75.0,71.0,76.0,72.8,69.0,97,93,80,29.83,29.72,10,4,16,0.00
2012-9-3,84.0,77.3,73.0,76.0,73.3,69.0,97,88,71,29.88,29.75,8,3,13,0.00
2012-9-4,91.0,78.9,68.0,76.0,71.9,67.0,98,81,54,29.92,29.83,6,1,11,0.00
2012-9-5,84.0,73.6,66.0,77.0,70.6,64.0,97,91,71,29.93,29.78,26,2,35,0.00
2012-9-6,90.0,75.9,63.0,76.0,69.2,62.0,98,82,49,29.96,29.88,4,0,8,0.01
2012-9-7,89.0,74.4,62.0,73.0,67.6,61.0,97,81,57,29.91,29.64,10,3,20,0.01
2012-9-8,72.0,65.1,56.0,67.0,56.0,51.0,95,74,48,29.98,29.77,12,6,26,0.00
2012-9-9,74.0,62.3,52.0,58.0,54.3,50.0,93,77,51,30.14,29.93,10,3,18,0.00
2012-9-10,79.0,64.8,50.0,58.0,54.0,48.0,96,71,40,30.23,30.12,4,1,9,0.00
2012-9-11,82.0,67.2,54.0,60.0,56.0,51.0,94,71,42,30.23,30.13,7,2,12,0.00
2012-9-12,85.0,70.0,58.0,64.0,58.7,55.0,90,70,39,30.24,30.15,10,3,19,0.00
2012-9-13,84.0,70.8,61.0,66.0,61.9,57.0,89,75,51,30.26,30.17,7,2,12,0.00
2012-9-14,72.0,63.4,57.0,62.0,56.5,50.0,93,80,48,30.31,30.22,10,4,15,0.00
2012-9-15,74.0,63.0,52.0,55.0,51.5,46.0,91,68,37,30.33,30.16,8,2,14,0.00
2012-9-16,75.0,64.4,56.0,63.0,57.0,51.0,93,78,57,30.16,30.01,5,1,11,0.00
2012-9-17,73.0,66.7,59.0,67.0,64.1,57.0,96,91,81,30.01,29.76,4,0,7,0.00
2012-9-18,67.0,60.3,46.0,65.0,47.6,37.0,96,67,34,30.09,29.75,17,7,25,0.00
2012-9-19,72.0,56.0,39.0,49.0,42.1,37.0,96,65,32,30.19,30.03,10,3,23,0.00
2012-9-20,75.0,61.5,52.0,59.0,51.1,44.0,91,70,45,30.05,29.94,7,3,13,0.00
2012-9-21,80.0,62.2,45.0,65.0,54.1,43.0,95,77,42,30.02,29.73,13,3,25,0.00
2012-9-22,68.0,57.0,42.0,59.0,41.9,-99.9,96,66,30,30.22,29.81,14,-18,24,0.00
2012-9-23,64.0,48.5,36.0,45.0,38.9,34.0,96,74,36,30.32,30.22,10,2,15,0.00
2012-9-24,70.0,53.8,34.0,47.0,39.3,32.0,96,64,30,30.30,30.03,9,3,16,0.00
2012-9-25,80.0,58.8,53.0,68.0,43.9,-99.9,96,73,65,30.03,29.89,13,-87,21,0.00
2012-9-26,74.0,64.6,62.0,67.0,59.6,-99.9,97,90,78,30.09,29.96,10,-26,18,0.00
2012-9-27,70.0,66.4,64.0,66.0,64.5,63.0,98,94,84,30.15,30.06,6,1,9,0.00
2012-9-28,70.0,62.3,54.0,63.0,54.0,50.0,97,75,49,30.16,30.06,8,3,14,0.00
2012-9-29,75.0,60.9,50.0,58.0,53.2,49.0,95,78,48,30.12,29.98,7,3,14,0.00
2012-9-30,72.0,59.9,49.0,55.0,51.7,48.0,97,77,45,29.98,29.84,8,2,12,0.00
2012-10-1,60.0,56.5,54.0,54.0,51.0,47.0,92,82,73,29.86,29.70,9,6,14,0.00
2012-10-2,57.0,55.9,54.0,56.0,53.6,51.0,97,92,85,29.90,29.70,9,4,14,0.01
2012-10-3,76.0,63.1,56.0,59.0,55.6,54.0,97,79,49,30.11,29.90,10,4,14,0.01
2012-10-4,80.0,65.9,55.0,62.0,56.7,52.0,93,75,45,30.20,30.11,10,3,18,0.00
2012-10-5,62.0,49.9,42.0,56.0,45.9,40.0,94,86,76,30.20,30.09,12,6,26,0.00
2012-10-6,52.0,44.0,35.0,40.0,36.3,33.0,94,76,52,30.26,30.18,7,2,13,0.00
2012-10-7,53.0,44.5,38.0,39.0,35.8,32.0,93,73,47,30.27,30.20,10,2,15,0.00
2012-10-8,59.0,46.4,33.0,41.0,36.3,32.0,95,71,40,30.28,30.14,6,1,11,0.00
2012-10-9,64.0,50.5,37.0,45.0,41.3,35.0,91,72,48,30.15,29.97,10,3,19,0.00
2012-10-10,55.0,49.3,40.0,47.0,38.3,30.0,87,68,39,30.27,29.97,9,4,22,0.00
2012-10-11,64.0,56.6,49.0,44.0,40.5,36.0,84,57,39,30.30,30.19,8,3,13,0.00
2012-10-12,65.0,55.1,47.0,50.0,47.2,44.0,94,76,54,30.37,30.21,9,2,13,0.00
2012-10-13,77.0,62.7,49.0,67.0,56.7,45.0,93,82,64,30.27,29.89,14,6,23,0.00
2012-10-14,73.0,67.0,55.0,65.0,59.6,48.0,87,77,62,29.92,29.70,22,11,36,0.00
2012-10-15,65.0,54.7,45.0,50.0,45.8,43.0,92,74,46,30.01,29.91,9,2,13,0.00
2012-10-16,75.0,58.7,42.0,56.0,48.8,40.0,95,72,51,30.00,29.71,13,6,21,0.00
2012-10-17,74.0,62.9,55.0,56.0,52.7,49.0,94,71,52,29.74,29.39,18,10,29,0.00
2012-10-18,63.0,55.1,48.0,55.0,42.4,33.0,95,66,33,29.65,29.50,17,7,24,0.00
2012-10-19,54.0,50.3,48.0,46.0,38.3,-99.9,89,74,55,29.78,29.56,9,4,19,0.00
2012-10-20,55.0,49.7,46.0,48.0,45.2,43.0,93,84,73,29.99,29.78,6,2,10,0.00
2012-10-21,74.0,60.2,46.0,61.0,52.1,44.0,92,76,54,30.05,29.96,10,6,16,0.00
2012-10-22,78.0,70.0,63.0,63.0,56.8,52.0,75,63,50,30.04,29.93,19,8,30,0.00
2012-10-23,73.0,66.3,63.0,63.0,56.7,52.0,92,72,57,30.03,29.93,10,5,15,0.00
2012-10-24,79.0,67.5,58.0,66.0,59.2,53.0,85,75,60,30.05,29.96,14,6,23,0.00
2012-10-25,79.0,67.3,49.0,64.0,58.3,43.0,88,74,59,30.08,29.85,18,9,28,0.00
2012-10-26,48.0,43.5,40.0,44.0,38.0,34.0,93,81,67,30.29,30.08,14,9,22,0.00
2012-10-27,52.0,42.9,35.0,40.0,35.3,31.0,87,75,58,30.27,30.18,14,8,23,0.00
2012-10-28,51.0,42.2,37.0,38.0,34.0,31.0,86,73,54,30.22,30.18,14,7,23,0.00
2012-10-29,53.0,43.2,35.0,37.0,33.2,31.0,88,69,48,30.26,30.05,18,8,25,0.00
2012-10-30,50.0,42.7,38.0,32.0,28.8,25.0,68,58,38,30.04,29.83,14,8,26,0.00
2012-10-31,50.0,40.4,31.0,35.0,28.8,26.0,82,63,47,29.97,29.86,9,3,16,0.00
2012-11-1,59.0,43.8,30.0,39.0,30.6,23.0,85,62,34,30.03,29.90,7,1,14,0.00
2012-11-2,54.0,45.3,37.0,39.0,35.9,32.0,86,70,50,30.11,29.89,8,3,13,0.01
2012-11-3,48.0,43.0,38.0,39.0,36.3,33.0,90,77,68,30.20,30.06,12,7,18,0.00
2012-11-4,50.0,38.8,30.0,37.0,33.1,28.0,94,81,57,30.27,30.18,7,2,13,0.00
2012-11-5,42.0,37.9,32.0,37.0,34.0,30.0,94,86,71,30.22,30.11,6,1,11,0.02
2012-11-6,47.0,41.3,33.0,42.0,37.3,31.0,95,86,68,30.11,29.93,2,0,7,0.06
2012-11-7,49.0,43.9,40.0,42.0,40.2,38.0,95,87,72,30.20,29.93,10,3,20,0.05
2012-11-8,54.0,44.9,36.0,42.0,38.5,34.0,95,79,58,30.29,30.16,6,2,13,0.01
2012-11-9,67.0,52.0,37.0,50.0,42.3,34.0,90,71,50,30.19,30.03,15,7,22,0.00
2012-11-10,72.0,59.3,47.0,54.0,47.3,41.0,79,65,49,30.14,30.04,20,9,27,0.00
2012-11-11,67.0,60.5,52.0,56.0,49.3,45.0,93,67,58,30.11,29.92,19,12,35,0.38
2012-11-12,51.0,38.6,31.0,49.0,30.7,23.0,95,74,46,30.47,30.00,11,4,23,0.89
2012-11-13,44.0,34.5,26.0,29.0,26.3,23.0,93,73,47,30.58,30.47,4,0,9,0.02
2012-11-14,43.0,34.2,29.0,32.0,27.2,-99.9,90,77,63,30.55,30.40,5,1,8,0.00
2012-11-15,48.0,35.1,25.0,35.0,29.1,23.0,93,80,56,30.44,30.37,4,0,11,0.00
2012-11-16,51.0,37.3,26.0,38.0,30.7,24.0,95,79,48,30.51,30.42,5,0,9,0.01
2012-11-17,56.0,40.9,28.0,40.0,33.0,25.0,92,75,49,30.57,30.45,5,0,9,0.01
2012-11-18,61.0,42.4,29.0,43.0,34.2,27.0,93,75,43,30.46,30.36,4,0,8,0.00
2012-11-19,61.0,46.7,33.0,45.0,38.7,30.0,92,75,51,30.36,30.17,4,0,8,0.00
2012-11-20,63.0,53.6,44.0,50.0,45.1,38.0,90,73,60,30.19,30.08,2,0,6,0.00
2012-11-21,63.0,48.5,37.0,51.0,43.5,36.0,97,84,59,30.30,30.18,5,0,9,0.00
2012-11-22,62.0,50.3,36.0,51.0,44.3,34.0,96,81,62,30.21,30.02,13,5,22,0.11
2012-11-23,55.0,41.5,29.0,52.0,32.7,20.0,93,71,53,30.33,30.03,14,6,25,0.20
2012-11-24,35.0,28.8,24.0,27.0,21.9,19.0,84,75,62,30.37,30.13,8,2,11,0.01
2012-11-25,53.0,38.9,29.0,38.0,29.7,23.0,88,70,47,30.14,29.96,9,4,15,0.00
2012-11-26,46.0,37.1,29.0,35.0,30.0,24.0,93,76,60,30.35,30.09,12,6,22,0.00
2012-11-27,40.0,31.2,23.0,29.0,25.3,21.0,92,79,59,30.46,30.35,10,3,15,0.00
2012-11-28,46.0,31.8,21.0,30.0,24.5,19.0,93,77,46,30.50,30.38,4,0,8,0.00
2012-11-29,52.0,39.7,28.0,38.0,30.9,23.0,88,72,56,30.41,30.20,12,5,19,0.00
2012-11-30,61.0,47.9,37.0,45.0,37.2,29.0,81,67,52,30.22,30.12,11,5,16,0.00
2012-12-1,63.0,53.6,41.0,52.0,46.0,38.0,91,76,65,30.21,30.05,13,7,21,0.00
2012-12-2,64.0,60.8,58.0,60.0,56.2,50.0,95,85,72,30.09,30.00,14,8,25,0.07
2012-12-3,70.0,63.8,59.0,62.0,58.5,54.0,93,83,70,30.09,30.00,19,11,30,0.01
2012-12-4,62.0,52.9,37.0,58.0,48.2,35.0,94,85,66,30.29,30.00,10,4,18,0.01
2012-12-5,54.0,41.6,32.0,41.0,35.3,30.0,96,80,53,30.41,30.21,8,2,12,0.01
2012-12-6,50.0,41.6,34.0,45.0,35.6,-99.9,93,83,75,30.21,29.99,8,3,11,0.00
2012-12-7,56.0,49.8,46.0,55.0,48.6,44.0,97,96,91,29.99,29.83,6,1,10,0.04
2012-12-8,49.0,47.0,43.0,48.0,44.9,41.0,98,93,84,30.03,29.86,9,4,14,0.01
2012-12-9,56.0,50.1,43.0,55.0,48.6,39.0,97,94,89,30.01,29.74,11,5,20,0.02
2012-12-10,43.0,33.0,29.0,39.0,28.6,23.0,87,84,76,30.09,29.82,10,6,19,0.01
2012-12-11,38.0,30.3,25.0,27.0,24.0,21.0,88,77,63,30.29,30.08,9,3,16,0.04
2012-12-12,46.0,33.0,22.0,32.0,25.9,19.0,91,76,54,30.42,30.29,8,2,12,0.02
2012-12-13,50.0,36.4,25.0,33.0,26.6,22.0,91,70,43,30.42,30.27,12,4,18,0.01
2012-12-14,53.0,41.5,28.0,36.0,30.5,23.0,85,66,48,30.31,30.10,11,4,15,0.00
2012-12-15,55.0,49.6,44.0,52.0,45.3,35.0,93,85,68,30.12,29.72,20,11,28,0.18
2012-12-16,53.0,47.4,38.0,52.0,45.4,36.0,97,93,84,29.78,29.70,8,2,11,0.01
2012-12-17,43.0,40.9,37.0,42.0,39.5,35.0,96,95,91,29.81,29.63,11,5,15,0.12
2012-12-18,52.0,42.9,36.0,42.0,37.4,33.0,92,81,63,29.92,29.72,17,7,29,0.02
2012-12-19,53.0,40.4,29.0,46.0,35.8,27.0,94,84,75,30.08,29.69,15,6,23,0.00
2012-12-20,57.0,44.1,29.0,53.0,38.5,24.0,94,80,66,29.84,29.29,26,15,35,0.21
2012-12-21,36.0,29.2,26.0,25.0,19.6,17.0,83,68,49,30.31,29.83,18,10,31,0.01
2012-12-22,40.0,28.8,19.0,27.0,20.8,15.0,88,72,52,30.35,30.04,8,3,11,0.00
2012-12-23,53.0,40.5,31.0,37.0,31.0,24.0,81,70,47,30.04,29.88,6,2,9,0.00
2012-12-24,41.0,35.9,28.0,36.0,31.2,24.0,88,83,76,30.14,29.80,12,4,19,0.00
2012-12-25,34.0,31.0,27.0,28.0,26.1,23.0,88,82,73,30.25,29.91,16,9,28,0.00
2012-12-26,33.0,30.7,29.0,29.0,28.2,26.0,96,91,78,30.14,29.72,20,14,30,0.00
2012-12-27,32.0,29.3,28.0,27.0,25.3,24.0,90,85,76,30.25,30.14,5,2,11,0.00
2012-12-28,34.0,31.1,29.0,30.0,28.1,25.0,95,88,84,30.16,29.88,8,3,14,0.00
2012-12-29,30.0,27.3,11.0,29.0,24.0,8.0,96,87,76,30.40,29.87,11,3,20,0.03
2012-12-30,28.0,18.3,3.0,23.0,14.6,0.0,93,85,75,30.54,30.34,10,3,13,0.07
2012-12-31,35.0,31.7,22.0,31.0,28.8,20.0,96,89,81,30.35,30.11,11,5,15,0.10
2013-1-1,32.0,25.4,16.0,31.0,22.3,11.0,96,88,78,30.28,30.11,8,5,13,0.01